Time;durP1;ratioP1;P1;durP2;ratioP2;P2;SDS_P1;SDS_P2;PMS_P1;PMS_P2;Temp;Humidity;BMP_temperature;BMP_pressure;BME280_temperature;BME280_humidity;BME280_pressure;Samples;Min_cycle;Max_cycle;Signal;HPM_P1;HPM_P2
2022/06/01 00:01:49;;;;;;;36.72;22.13;;;;;;;;;;5089698;28;20090;-73
2022/06/01 00:04:16;;;;;;;37.13;24.13;;;;;;;;;;5090494;28;20082;-73
2022/06/01 00:06:42;;;;;;;37.08;23.98;;;;;;;;;;5095968;27;20114;-73
2022/06/01 00:09:09;;;;;;;34.65;23.85;;;;;;;;;;5084875;28;20052;-73
2022/06/01 00:11:36;;;;;;;34.63;23.35;;;;;;;;;;5088409;28;20048;-73
2022/06/01 00:14:02;;;;;;;38.40;23.30;;;;;;;;;;5099240;28;20052;-73
2022/06/01 00:16:28;;;;;;;37.05;22.38;;;;;;;;;;5090070;28;20048;-73
2022/06/01 00:18:55;;;;;;;37.38;23.05;;;;;;;;;;5094955;28;20055;-73
2022/06/01 00:21:22;;;;;;;38.30;22.50;;;;;;;;;;5099218;28;20170;-73
2022/06/01 00:23:48;;;;;;;35.67;22.42;;;;;;;;;;5103581;27;20566;-73
2022/06/01 00:26:15;;;;;;;35.42;22.77;;;;;;;;;;5094077;28;20058;-73
2022/06/01 00:28:41;;;;;;;37.25;22.98;;;;;;;;;;5091632;28;20437;-74
2022/06/01 00:31:11;;;;;;;40.40;22.00;;;;;;;;;;5091675;28;20060;-73
2022/06/01 00:33:37;;;;;;;36.25;21.67;;;;;;;;;;5102023;28;20057;-73
2022/06/01 00:36:06;;;;;;;31.33;19.95;;;;;;;;;;5095327;27;20138;-74
2022/06/01 00:38:32;;;;;;;35.53;20.33;;;;;;;;;;5083941;27;20159;-73
2022/06/01 00:40:58;;;;;;;31.83;19.42;;;;;;;;;;5100206;28;20570;-74
2022/06/01 00:43:26;;;;;;;29.65;17.75;;;;;;;;;;5091043;28;20062;-74
2022/06/01 00:45:53;;;;;;;25.23;15.70;;;;;;;;;;5096118;27;20052;-73
2022/06/01 00:48:21;;;;;;;24.90;15.32;;;;;;;;;;5096671;27;20245;-73
2022/06/01 00:50:48;;;;;;;25.45;15.27;;;;;;;;;;5091507;27;20521;-73
2022/06/01 00:53:19;;;;;;;23.95;13.85;;;;;;;;;;5095506;28;20092;-73
2022/06/01 00:55:47;;;;;;;19.25;12.43;;;;;;;;;;5088784;28;20256;-73
2022/06/01 00:58:18;;;;;;;19.90;12.45;;;;;;;;;;5088223;28;20044;-73
2022/06/01 01:00:46;;;;;;;19.48;12.25;;;;;;;;;;5101695;27;20137;-73
2022/06/01 01:03:15;;;;;;;22.38;12.73;;;;;;;;;;5100545;27;20058;-72
2022/06/01 01:05:53;;;;;;;22.08;12.82;;;;;;;;;;5102138;27;20147;-73
2022/06/01 01:08:20;;;;;;;21.02;12.32;;;;;;;;;;5091847;27;20052;-72
2022/06/01 01:10:46;;;;;;;19.85;12.95;;;;;;;;;;5100438;28;20052;-73
2022/06/01 01:13:14;;;;;;;19.17;12.77;;;;;;;;;;5095403;28;20058;-72
2022/06/01 01:15:52;;;;;;;17.77;12.20;;;;;;;;;;5081981;28;20075;-73
2022/06/01 01:18:20;;;;;;;19.05;11.88;;;;;;;;;;5084900;28;20096;-73
2022/06/01 01:21:05;;;;;;;22.63;12.30;;;;;;;;;;5096161;28;20056;-73
2022/06/01 01:23:47;;;;;;;21.10;12.15;;;;;;;;;;5094010;28;20147;-72
2022/06/01 01:26:14;;;;;;;21.35;12.20;;;;;;;;;;5085814;28;20099;-73
2022/06/01 01:28:41;;;;;;;21.52;12.65;;;;;;;;;;5093257;27;20048;-73
2022/06/01 01:31:11;;;;;;;19.05;11.82;;;;;;;;;;5101665;27;20048;-73
2022/06/01 01:33:38;;;;;;;23.23;13.02;;;;;;;;;;5095206;28;20057;-73
2022/06/01 01:36:09;;;;;;;22.35;12.75;;;;;;;;;;5093508;28;20052;-72
2022/06/01 01:38:45;;;;;;;21.77;13.30;;;;;;;;;;5093439;28;20541;-73
2022/06/01 01:41:19;;;;;;;20.33;12.90;;;;;;;;;;5099606;28;20142;-73
2022/06/01 01:43:49;;;;;;;22.40;12.95;;;;;;;;;;5094526;28;20106;-73
2022/06/01 01:46:15;;;;;;;18.90;11.77;;;;;;;;;;5095048;27;20074;-73
2022/06/01 01:48:42;;;;;;;21.40;12.65;;;;;;;;;;5090869;28;20059;-73
2022/06/01 01:51:09;;;;;;;21.23;12.98;;;;;;;;;;5101622;28;20052;-73
2022/06/01 01:53:35;;;;;;;20.45;12.80;;;;;;;;;;5092798;27;20127;-73
2022/06/01 01:56:14;;;;;;;22.60;13.27;;;;;;;;;;5095249;28;20052;-73
2022/06/01 01:58:48;;;;;;;22.92;14.27;;;;;;;;;;5093602;28;20053;-73
2022/06/01 02:01:28;;;;;;;25.48;14.93;;;;;;;;;;5100424;28;20487;-72
2022/06/01 02:04:02;;;;;;;26.67;15.17;;;;;;;;;;5090817;28;20401;-73
2022/06/01 02:06:35;;;;;;;22.60;14.23;;;;;;;;;;5097447;27;20047;-74
2022/06/01 02:09:07;;;;;;;28.13;15.40;;;;;;;;;;5103701;27;20044;-73
2022/06/01 02:14:21;;;;;;;27.70;15.95;;;;;;;;;;5093840;27;20054;-73
2022/06/01 02:16:53;;;;;;;24.70;15.25;;;;;;;;;;5098676;28;20066;-73
2022/06/01 02:19:23;;;;;;;23.75;14.80;;;;;;;;;;5104547;27;20048;-72
2022/06/01 02:21:56;;;;;;;25.38;15.40;;;;;;;;;;5098357;27;20330;-73
2022/06/01 02:24:23;;;;;;;26.33;15.05;;;;;;;;;;5087741;28;20056;-73
2022/06/01 02:26:52;;;;;;;24.23;14.80;;;;;;;;;;5098411;28;20241;-73
2022/06/01 02:29:40;;;;;;;24.77;14.05;;;;;;;;;;5095628;27;20506;-74
2022/06/01 02:32:07;;;;;;;23.02;14.35;;;;;;;;;;5100513;27;20147;-72
2022/06/01 02:34:35;;;;;;;24.60;13.23;;;;;;;;;;5102163;28;20048;-73
2022/06/01 02:37:04;;;;;;;20.80;12.25;;;;;;;;;;5105911;27;20056;-73
2022/06/01 02:39:31;;;;;;;19.80;12.20;;;;;;;;;;5100952;28;20048;-74
2022/06/01 02:42:28;;;;;;;18.05;11.13;;;;;;;;;;5091105;28;20062;-73
2022/06/01 02:44:55;;;;;;;17.70;11.00;;;;;;;;;;5098417;27;20070;-74
2022/06/01 02:47:21;;;;;;;14.70;9.68;;;;;;;;;;5101923;28;20142;-73
2022/06/01 02:49:48;;;;;;;15.52;8.85;;;;;;;;;;5101033;27;20062;-73
2022/06/01 02:52:14;;;;;;;16.10;9.27;;;;;;;;;;5089756;28;20052;-73
2022/06/01 02:54:41;;;;;;;14.90;8.05;;;;;;;;;;5100972;27;20048;-74
2022/06/01 02:57:07;;;;;;;14.98;8.48;;;;;;;;;;5092592;28;20052;-72
2022/06/01 02:59:34;;;;;;;14.18;8.40;;;;;;;;;;5093759;27;20062;-73
2022/06/01 03:02:00;;;;;;;14.82;8.48;;;;;;;;;;5088848;28;20561;-73
2022/06/01 03:04:26;;;;;;;13.68;8.27;;;;;;;;;;5092472;28;20054;-73
2022/06/01 03:06:58;;;;;;;13.18;8.10;;;;;;;;;;5102708;28;20052;-72
2022/06/01 03:09:34;;;;;;;13.95;8.10;;;;;;;;;;5083258;28;20105;-74
2022/06/01 03:12:01;;;;;;;13.32;7.65;;;;;;;;;;5097643;28;20143;-73
2022/06/01 03:14:27;;;;;;;12.70;7.90;;;;;;;;;;5092934;28;20541;-73
2022/06/01 03:16:55;;;;;;;13.95;8.25;;;;;;;;;;5091867;28;20059;-73
2022/06/01 03:19:22;;;;;;;13.10;8.35;;;;;;;;;;5100880;28;20490;-73
2022/06/01 03:21:48;;;;;;;12.70;8.57;;;;;;;;;;5099025;27;20127;-73
2022/06/01 03:24:14;;;;;;;16.08;8.63;;;;;;;;;;5102913;27;20052;-73
2022/06/01 03:26:42;;;;;;;14.73;8.52;;;;;;;;;;5098740;28;20048;-74
2022/06/01 03:29:08;;;;;;;15.60;7.95;;;;;;;;;;5094483;28;20592;-73
2022/06/01 03:31:35;;;;;;;15.63;8.60;;;;;;;;;;5091868;27;20052;-72
2022/06/01 03:34:02;;;;;;;15.50;8.13;;;;;;;;;;5090206;28;20311;-72
2022/06/01 03:36:28;;;;;;;15.88;8.27;;;;;;;;;;5089576;28;20054;-73
2022/06/01 03:38:55;;;;;;;15.23;7.93;;;;;;;;;;5095514;28;20056;-73
2022/06/01 03:41:23;;;;;;;14.57;8.98;;;;;;;;;;5096004;28;20505;-73
2022/06/01 03:46:34;;;;;;;13.50;6.47;;;;;;;;;;5092789;28;20491;-73
2022/06/01 03:49:01;;;;;;;14.48;7.63;;;;;;;;;;5095897;28;20122;-74
2022/06/01 03:51:27;;;;;;;12.55;7.22;;;;;;;;;;5094681;27;20260;-73
2022/06/01 03:53:54;;;;;;;12.55;7.05;;;;;;;;;;5102620;28;20058;-74
2022/06/01 03:56:22;;;;;;;10.65;6.53;;;;;;;;;;5093527;28;20139;-73
2022/06/01 03:58:50;;;;;;;13.45;7.38;;;;;;;;;;5091487;27;20525;-72
2022/06/01 04:01:17;;;;;;;11.88;6.97;;;;;;;;;;5096567;27;20059;-74
2022/06/01 04:03:44;;;;;;;11.02;6.60;;;;;;;;;;5102167;27;20058;-73
2022/06/01 04:06:11;;;;;;;12.32;7.55;;;;;;;;;;5094876;27;20071;-74
2022/06/01 04:08:37;;;;;;;14.07;7.68;;;;;;;;;;5094495;27;20052;-74
2022/06/01 04:11:04;;;;;;;13.80;8.65;;;;;;;;;;5101825;28;20345;-74
2022/06/01 04:13:30;;;;;;;15.68;9.80;;;;;;;;;;5090898;28;20631;-73
2022/06/01 04:15:57;;;;;;;16.92;10.30;;;;;;;;;;5093414;28;20052;-74
2022/06/01 04:18:28;;;;;;;18.85;11.43;;;;;;;;;;5098025;27;20052;-74
2022/06/01 04:20:55;;;;;;;16.85;10.48;;;;;;;;;;5098410;28;20074;-74
2022/06/01 04:23:21;;;;;;;22.08;12.32;;;;;;;;;;5098366;27;20052;-74
2022/06/01 04:25:48;;;;;;;25.02;13.27;;;;;;;;;;5085719;27;20075;-72
2022/06/01 04:28:15;;;;;;;22.40;13.75;;;;;;;;;;5091527;28;20052;-73
2022/06/01 04:30:41;;;;;;;24.05;14.00;;;;;;;;;;5091764;28;20053;-73
2022/06/01 04:33:08;;;;;;;19.83;12.98;;;;;;;;;;5095214;28;20519;-74
2022/06/01 04:35:34;;;;;;;21.02;14.02;;;;;;;;;;5091806;27;20056;-74
2022/06/01 04:38:13;;;;;;;21.92;12.73;;;;;;;;;;5102454;28;20052;-74
2022/06/01 04:40:44;;;;;;;20.83;13.02;;;;;;;;;;5099519;28;20060;-73
2022/06/01 04:43:11;;;;;;;22.92;13.40;;;;;;;;;;5089727;28;20049;-73
2022/06/01 04:45:38;;;;;;;21.92;13.15;;;;;;;;;;5093211;28;20048;-72
2022/06/01 04:48:04;;;;;;;24.55;14.30;;;;;;;;;;5088343;28;20185;-74
2022/06/01 04:50:31;;;;;;;22.02;14.35;;;;;;;;;;5103015;27;20055;-73
2022/06/01 04:52:57;;;;;;;25.20;14.63;;;;;;;;;;5089044;28;20052;-74
2022/06/01 04:55:23;;;;;;;22.85;13.77;;;;;;;;;;5094449;27;20083;-74
2022/06/01 04:57:50;;;;;;;21.65;12.70;;;;;;;;;;5097470;28;20053;-73
2022/06/01 05:00:16;;;;;;;23.48;13.40;;;;;;;;;;5100014;28;20070;-74
2022/06/01 05:02:42;;;;;;;24.42;14.27;;;;;;;;;;5094464;28;20052;-73
2022/06/01 05:05:09;;;;;;;29.52;14.20;;;;;;;;;;5092958;28;20063;-75
2022/06/01 05:07:35;;;;;;;21.73;13.90;;;;;;;;;;5100447;28;20077;-74
2022/06/01 05:10:02;;;;;;;22.83;14.00;;;;;;;;;;5102117;28;20052;-74
2022/06/01 05:12:29;;;;;;;22.45;14.77;;;;;;;;;;5084280;28;20208;-74
2022/06/01 05:14:55;;;;;;;25.67;13.15;;;;;;;;;;5095616;28;20060;-72
2022/06/01 05:17:21;;;;;;;20.33;12.07;;;;;;;;;;5096068;28;20441;-73
2022/06/01 05:19:48;;;;;;;22.58;12.63;;;;;;;;;;5096150;28;20127;-74
2022/06/01 05:22:14;;;;;;;18.65;12.10;;;;;;;;;;5097509;28;20522;-74
2022/06/01 05:24:40;;;;;;;19.17;11.02;;;;;;;;;;5091917;27;20055;-74
2022/06/01 05:27:07;;;;;;;16.13;10.02;;;;;;;;;;5092997;28;20059;-74
2022/06/01 05:29:34;;;;;;;14.75;9.35;;;;;;;;;;5101190;28;20048;-75
2022/06/01 05:32:00;;;;;;;13.80;8.70;;;;;;;;;;5091377;27;20052;-74
2022/06/01 05:34:27;;;;;;;13.85;8.13;;;;;;;;;;5096040;28;20056;-76
2022/06/01 05:36:53;;;;;;;12.68;8.25;;;;;;;;;;5089168;28;20540;-75
2022/06/01 05:39:19;;;;;;;12.52;7.70;;;;;;;;;;5083520;28;20044;-75
2022/06/01 05:41:46;;;;;;;13.55;8.30;;;;;;;;;;5096739;28;20092;-75
2022/06/01 05:44:13;;;;;;;11.32;7.10;;;;;;;;;;5095354;28;20056;-75
2022/06/01 05:46:39;;;;;;;11.20;7.80;;;;;;;;;;5095505;27;20718;-76
2022/06/01 05:49:06;;;;;;;13.30;8.15;;;;;;;;;;5099170;28;20086;-75
2022/06/01 05:51:34;;;;;;;14.43;7.82;;;;;;;;;;5089213;28;20091;-75
2022/06/01 05:54:01;;;;;;;11.27;7.10;;;;;;;;;;5102604;27;20056;-75
2022/06/01 05:56:27;;;;;;;9.80;6.70;;;;;;;;;;5090382;28;20900;-75
2022/06/01 05:58:53;;;;;;;10.77;7.20;;;;;;;;;;5095027;28;20509;-75
2022/06/01 06:01:22;;;;;;;12.65;7.65;;;;;;;;;;5086011;28;20906;-75
2022/06/01 06:03:49;;;;;;;11.23;7.45;;;;;;;;;;5102703;28;20599;-75
2022/06/01 06:06:16;;;;;;;11.65;7.32;;;;;;;;;;5090719;28;20056;-75
2022/06/01 06:09:18;;;;;;;10.45;6.78;;;;;;;;;;5087101;28;20172;-74
2022/06/01 06:11:44;;;;;;;11.65;6.00;;;;;;;;;;5021091;28;20260;-76
2022/06/01 06:14:10;;;;;;;9.68;6.25;;;;;;;;;;5077321;28;20062;-75
2022/06/01 06:16:42;;;;;;;9.73;5.82;;;;;;;;;;5101638;28;20087;-75
2022/06/01 06:19:09;;;;;;;9.15;5.38;;;;;;;;;;5103161;27;20532;-75
2022/06/01 06:21:35;;;;;;;8.90;5.80;;;;;;;;;;5092551;28;20054;-75
2022/06/01 06:24:04;;;;;;;8.23;5.32;;;;;;;;;;5100563;28;20063;-75
2022/06/01 06:26:30;;;;;;;8.73;5.47;;;;;;;;;;5104154;27;20180;-76
2022/06/01 06:28:57;;;;;;;7.97;4.97;;;;;;;;;;5096094;28;20704;-74
2022/06/01 06:31:23;;;;;;;8.23;5.32;;;;;;;;;;5091545;28;20048;-73
2022/06/01 06:33:50;;;;;;;9.30;4.88;;;;;;;;;;5092677;28;20570;-75
2022/06/01 06:36:16;;;;;;;8.70;4.82;;;;;;;;;;5098354;28;20110;-77
2022/06/01 06:38:43;;;;;;;9.23;4.93;;;;;;;;;;5096536;27;20053;-75
2022/06/01 06:41:12;;;;;;;7.75;4.82;;;;;;;;;;5096663;28;20502;-75
2022/06/01 06:43:39;;;;;;;8.52;4.97;;;;;;;;;;5094414;28;20890;-77
2022/06/01 06:46:10;;;;;;;7.30;4.78;;;;;;;;;;5095749;28;19932;-76
2022/06/01 06:48:38;;;;;;;6.43;4.35;;;;;;;;;;5090355;27;20206;-75
2022/06/01 06:51:05;;;;;;;6.85;4.53;;;;;;;;;;5079129;28;20262;-76
2022/06/01 06:53:32;;;;;;;9.70;4.40;;;;;;;;;;5080247;28;20136;-75
2022/06/01 06:55:58;;;;;;;5.63;4.20;;;;;;;;;;5081720;28;20087;-76
2022/06/01 06:58:25;;;;;;;7.75;4.07;;;;;;;;;;5097155;27;20066;-76
2022/06/01 07:00:51;;;;;;;7.60;3.88;;;;;;;;;;5104646;27;20134;-76
2022/06/01 07:03:18;;;;;;;6.55;3.90;;;;;;;;;;5102657;28;20052;-76
2022/06/01 07:08:30;;;;;;;6.55;4.03;;;;;;;;;;5105971;28;20054;-77
2022/06/01 07:10:57;;;;;;;9.82;4.50;;;;;;;;;;5089093;28;20548;-76
2022/06/01 07:13:23;;;;;;;8.20;4.28;;;;;;;;;;5091329;28;20370;-77
2022/06/01 07:16:00;;;;;;;6.63;4.05;;;;;;;;;;5084113;28;20063;-73
2022/06/01 07:18:26;;;;;;;7.55;4.20;;;;;;;;;;5085176;28;20083;-74
2022/06/01 07:20:53;;;;;;;7.13;4.13;;;;;;;;;;5085234;28;20474;-74
2022/06/01 07:23:19;;;;;;;6.15;3.47;;;;;;;;;;5083375;28;20155;-74
2022/06/01 07:25:45;;;;;;;6.80;3.92;;;;;;;;;;5087111;28;20052;-75
2022/06/01 07:28:12;;;;;;;8.35;3.63;;;;;;;;;;5083383;28;20056;-75
2022/06/01 07:30:38;;;;;;;8.65;3.47;;;;;;;;;;5090913;28;20048;-75
2022/06/01 07:33:05;;;;;;;9.10;4.00;;;;;;;;;;5102726;28;20541;-74
2022/06/01 07:35:31;;;;;;;8.38;4.10;;;;;;;;;;5090464;27;20507;-75
2022/06/01 07:43:29;;;;;;;5.82;3.38;;;;;;;;;;5105366;28;20056;-74
2022/06/01 07:45:56;;;;;;;6.15;3.60;;;;;;;;;;5096606;28;20809;-75
2022/06/01 07:48:23;;;;;;;6.68;3.90;;;;;;;;;;5104903;27;20064;-75
2022/06/01 07:51:10;;;;;;;6.50;3.15;;;;;;;;;;5085779;28;20057;-75
2022/06/01 07:53:36;;;;;;;7.50;3.53;;;;;;;;;;5082381;28;20055;-75
2022/06/01 07:56:02;;;;;;;6.50;4.00;;;;;;;;;;5099985;28;20048;-74
2022/06/01 07:58:29;;;;;;;5.80;3.50;;;;;;;;;;5104121;28;20135;-75
2022/06/01 08:00:55;;;;;;;7.53;2.88;;;;;;;;;;5104392;27;20170;-74
2022/06/01 08:03:21;;;;;;;5.75;2.60;;;;;;;;;;5097381;28;20139;-75
2022/06/01 08:05:48;;;;;;;4.38;2.38;;;;;;;;;;5082707;28;20140;-75
2022/06/01 08:08:14;;;;;;;4.35;2.47;;;;;;;;;;5082608;28;20151;-74
2022/06/01 08:10:41;;;;;;;4.45;2.40;;;;;;;;;;5088540;28;20052;-75
2022/06/01 08:13:11;;;;;;;6.50;2.65;;;;;;;;;;5101867;28;20048;-75
2022/06/01 08:15:38;;;;;;;5.28;2.60;;;;;;;;;;5087699;27;20147;-75
2022/06/01 08:18:04;;;;;;;6.07;2.60;;;;;;;;;;5083688;28;20063;-76
2022/06/01 08:20:31;;;;;;;4.78;2.78;;;;;;;;;;5086868;28;20143;-75
2022/06/01 08:22:59;;;;;;;6.32;2.60;;;;;;;;;;5104524;27;20076;-75
2022/06/01 08:25:26;;;;;;;4.80;2.45;;;;;;;;;;5089301;27;20059;-75
2022/06/01 08:27:52;;;;;;;5.00;2.40;;;;;;;;;;5083225;28;20290;-75
2022/06/01 08:30:21;;;;;;;4.97;2.10;;;;;;;;;;5084447;28;20429;-76
2022/06/01 08:32:49;;;;;;;4.05;1.90;;;;;;;;;;5090379;27;20044;-76
2022/06/01 08:35:18;;;;;;;4.30;2.20;;;;;;;;;;5092733;28;20055;-76
2022/06/01 08:37:48;;;;;;;6.18;2.63;;;;;;;;;;5097030;28;20072;-75
2022/06/01 08:40:18;;;;;;;4.15;2.40;;;;;;;;;;5088762;27;20063;-75
2022/06/01 08:43:05;;;;;;;4.15;2.40;;;;;;;;;;5086772;28;20056;-75
2022/06/01 08:45:32;;;;;;;3.83;2.05;;;;;;;;;;5081311;28;20052;-75
2022/06/01 08:48:03;;;;;;;4.32;2.60;;;;;;;;;;5084087;28;20434;-74
2022/06/01 08:50:32;;;;;;;5.18;2.42;;;;;;;;;;5085010;27;20052;-75
2022/06/01 08:53:00;;;;;;;5.97;3.10;;;;;;;;;;5092363;28;20068;-76
2022/06/01 08:55:27;;;;;;;8.70;3.67;;;;;;;;;;5082114;28;21854;-75
2022/06/01 08:57:59;;;;;;;7.18;2.83;;;;;;;;;;5077678;28;20052;-75
2022/06/01 09:00:27;;;;;;;4.68;2.50;;;;;;;;;;5084485;28;20052;-75
2022/06/01 09:02:54;;;;;;;4.30;2.42;;;;;;;;;;5094633;28;20052;-75
2022/06/01 09:05:20;;;;;;;6.22;2.40;;;;;;;;;;5096853;28;20614;-74
2022/06/01 09:08:06;;;;;;;4.65;2.40;;;;;;;;;;5096534;28;20131;-75
2022/06/01 09:10:35;;;;;;;5.18;2.55;;;;;;;;;;5097270;28;20171;-75
2022/06/01 09:13:10;;;;;;;5.43;2.40;;;;;;;;;;5091488;28;20071;-75
2022/06/01 09:15:42;;;;;;;4.50;2.40;;;;;;;;;;5086041;28;20143;-75
2022/06/01 09:18:08;;;;;;;5.18;2.50;;;;;;;;;;5085796;27;20114;-74
2022/06/01 09:23:20;;;;;;;5.20;2.60;;;;;;;;;;5093581;28;20054;-75
2022/06/01 09:25:50;;;;;;;4.15;2.22;;;;;;;;;;5096072;28;20089;-75
2022/06/01 09:28:19;;;;;;;5.80;2.07;;;;;;;;;;5103639;27;20059;-76
2022/06/01 09:30:50;;;;;;;4.88;2.00;;;;;;;;;;5087536;28;20048;-76
2022/06/01 09:33:26;;;;;;;5.40;1.90;;;;;;;;;;5096453;28;20517;-76
2022/06/01 09:36:00;;;;;;;4.50;1.90;;;;;;;;;;5102659;27;20669;-76
2022/06/01 09:38:36;;;;;;;5.82;2.30;;;;;;;;;;5093067;28;20071;-76
2022/06/01 09:41:22;;;;;;;5.03;2.00;;;;;;;;;;5088637;28;20537;-75
2022/06/01 09:44:03;;;;;;;4.03;1.70;;;;;;;;;;5101988;27;20139;-75
2022/06/01 09:46:33;;;;;;;4.57;1.55;;;;;;;;;;5088809;28;20056;-75
2022/06/01 09:49:03;;;;;;;3.33;1.67;;;;;;;;;;5100582;28;20056;-75
2022/06/01 09:51:31;;;;;;;3.93;1.77;;;;;;;;;;5101267;28;20083;-76
2022/06/01 09:54:21;;;;;;;5.90;1.80;;;;;;;;;;5081271;28;20286;-75
2022/06/01 09:56:48;;;;;;;3.05;1.60;;;;;;;;;;5085118;28;20347;-75
2022/06/01 10:07:45;;;;;;;3.88;1.30;;;;;;;;;;5090458;28;20056;-76
2022/06/01 10:10:22;;;;;;;4.68;1.40;;;;;;;;;;5089624;28;20087;-76
2022/06/01 10:12:52;;;;;;;4.35;1.48;;;;;;;;;;5086895;28;20137;-76
2022/06/01 10:15:24;;;;;;;3.85;1.40;;;;;;;;;;5087172;28;20067;-76
2022/06/01 10:17:53;;;;;;;3.90;1.55;;;;;;;;;;5100550;28;20225;-75
2022/06/01 10:20:20;;;;;;;3.58;1.20;;;;;;;;;;5088189;27;20477;-76
2022/06/01 10:22:58;;;;;;;3.50;1.10;;;;;;;;;;5089617;28;20127;-75
2022/06/01 10:25:31;;;;;;;5.65;1.13;;;;;;;;;;5091498;28;20491;-75
2022/06/01 10:28:00;;;;;;;3.00;1.10;;;;;;;;;;5088430;28;20151;-75
2022/06/01 10:30:49;;;;;;;4.25;1.30;;;;;;;;;;5090049;28;20048;-75
2022/06/01 10:33:18;;;;;;;3.10;1.30;;;;;;;;;;5086995;27;20514;-76
2022/06/01 10:35:47;;;;;;;3.17;1.10;;;;;;;;;;5100350;28;20135;-75
2022/06/01 10:38:18;;;;;;;5.57;1.30;;;;;;;;;;5092887;28;20427;-75
2022/06/01 10:40:49;;;;;;;7.32;1.25;;;;;;;;;;5096083;27;20143;-75
2022/06/01 10:43:18;;;;;;;3.05;0.90;;;;;;;;;;5098333;28;20123;-77
2022/06/01 10:45:52;;;;;;;3.07;0.70;;;;;;;;;;5094763;27;20180;-75
2022/06/01 10:48:29;;;;;;;1.90;0.77;;;;;;;;;;5099688;27;20362;-76
2022/06/01 10:51:06;;;;;;;3.40;0.90;;;;;;;;;;5088484;28;20576;-75
2022/06/01 10:53:59;;;;;;;2.55;1.13;;;;;;;;;;5100492;28;20441;-75
2022/06/01 10:56:26;;;;;;;4.45;1.17;;;;;;;;;;5092764;28;20056;-75
2022/06/01 10:58:54;;;;;;;3.08;1.05;;;;;;;;;;5090924;27;20074;-76
2022/06/01 11:01:20;;;;;;;3.35;0.80;;;;;;;;;;5089774;28;20059;-76
2022/06/01 11:04:01;;;;;;;5.15;1.00;;;;;;;;;;5093515;27;20514;-76
2022/06/01 11:06:50;;;;;;;3.15;0.90;;;;;;;;;;5093664;28;20056;-76
2022/06/01 11:09:36;;;;;;;3.50;1.25;;;;;;;;;;5093344;28;20053;-75
2022/06/01 11:12:21;;;;;;;2.15;0.90;;;;;;;;;;5091258;28;20435;-76
2022/06/01 11:15:06;;;;;;;3.17;1.20;;;;;;;;;;5093626;28;20651;-76
2022/06/01 11:17:39;;;;;;;3.13;1.20;;;;;;;;;;5090825;28;21014;-76
2022/06/01 11:20:05;;;;;;;2.97;1.05;;;;;;;;;;5093157;27;20139;-76
2022/06/01 11:22:35;;;;;;;4.03;1.27;;;;;;;;;;5086352;28;21096;-76
2022/06/01 11:25:08;;;;;;;2.55;1.00;;;;;;;;;;5095977;28;20060;-76
2022/06/01 11:27:34;;;;;;;3.03;1.10;;;;;;;;;;5090138;28;20072;-77
2022/06/01 11:30:11;;;;;;;3.85;1.23;;;;;;;;;;5087821;28;20056;-78
2022/06/01 11:32:50;;;;;;;3.75;1.08;;;;;;;;;;5087483;28;20096;-77
2022/06/01 11:35:19;;;;;;;2.38;0.90;;;;;;;;;;5087974;27;20078;-77
2022/06/01 11:37:58;;;;;;;2.60;0.90;;;;;;;;;;5094483;28;20052;-77
2022/06/01 11:40:24;;;;;;;1.77;0.70;;;;;;;;;;5088938;28;20052;-77
2022/06/01 11:42:55;;;;;;;1.98;0.70;;;;;;;;;;5095536;27;20055;-77
2022/06/01 11:45:26;;;;;;;2.42;0.70;;;;;;;;;;5088890;27;20048;-79
2022/06/01 11:47:54;;;;;;;2.47;0.80;;;;;;;;;;5085043;28;20133;-78
2022/06/01 11:50:24;;;;;;;1.83;0.60;;;;;;;;;;5090154;28;20048;-78
2022/06/01 11:53:05;;;;;;;2.58;0.75;;;;;;;;;;5100775;27;20060;-78
2022/06/01 11:55:35;;;;;;;4.35;0.90;;;;;;;;;;5085412;28;20056;-78
2022/06/01 11:58:01;;;;;;;;;;;;;;;;;;5085331;27;20139;-78
2022/06/01 12:00:34;;;;;;;2.83;1.02;;;;;;;;;;5088161;28;48816;-79
2022/06/01 12:03:01;;;;;;;3.20;1.17;;;;;;;;;;5093787;28;20135;-79
2022/06/01 12:05:28;;;;;;;2.13;0.70;;;;;;;;;;5090166;28;20055;-79
2022/06/01 12:08:05;;;;;;;1.45;0.65;;;;;;;;;;5086880;28;20139;-79
2022/06/01 12:10:51;;;;;;;3.20;0.80;;;;;;;;;;5098432;28;20055;-80
2022/06/01 12:13:36;;;;;;;2.55;0.70;;;;;;;;;;5094150;28;20113;-79
2022/06/01 12:16:05;;;;;;;4.85;1.40;;;;;;;;;;5088746;28;20114;-79
2022/06/01 12:18:33;;;;;;;3.43;1.30;;;;;;;;;;5087262;28;20511;-79
2022/06/01 12:21:17;;;;;;;3.40;1.42;;;;;;;;;;5088935;27;20136;-79
2022/06/01 12:29:35;;;;;;;3.03;1.30;;;;;;;;;;5079304;28;20173;-80
2022/06/01 12:32:11;;;;;;;3.70;1.20;;;;;;;;;;5087388;28;20084;-79
2022/06/01 12:34:41;;;;;;;3.53;1.20;;;;;;;;;;5087582;28;20884;-79
2022/06/01 12:37:11;;;;;;;2.72;1.13;;;;;;;;;;5096236;27;20549;-79
2022/06/01 12:39:40;;;;;;;3.05;1.27;;;;;;;;;;5099197;28;20079;-79
2022/06/01 12:42:12;;;;;;;3.53;1.40;;;;;;;;;;5101281;28;20048;-80
2022/06/01 12:44:40;;;;;;;3.10;1.30;;;;;;;;;;5090065;28;20263;-80
2022/06/01 12:47:07;;;;;;;3.83;1.27;;;;;;;;;;5090669;27;20108;-79
2022/06/01 12:49:33;;;;;;;2.83;1.30;;;;;;;;;;5088430;28;20063;-79
2022/06/01 12:52:04;;;;;;;5.30;1.20;;;;;;;;;;5093146;28;20138;-80
2022/06/01 12:54:30;;;;;;;;;;;;;;;;;;5096639;28;20056;-80
2022/06/01 12:56:57;;;;;;;2.80;1.10;;;;;;;;;;5085797;28;47013;-80
2022/06/01 12:59:23;;;;;;;3.65;1.27;;;;;;;;;;5085740;27;20057;-79
2022/06/01 13:01:51;;;;;;;4.00;1.40;;;;;;;;;;5093891;28;20624;-80
2022/06/01 13:04:22;;;;;;;3.63;1.40;;;;;;;;;;5093592;28;20056;-80
2022/06/01 13:06:49;;;;;;;3.92;1.67;;;;;;;;;;5090397;28;20063;-80
2022/06/01 13:09:19;;;;;;;3.90;1.38;;;;;;;;;;5091512;28;20139;-79
2022/06/01 13:11:56;;;;;;;4.68;1.88;;;;;;;;;;5095675;28;20924;-81
2022/06/01 13:14:25;;;;;;;4.50;1.73;;;;;;;;;;5094452;28;20044;-81
2022/06/01 13:16:51;;;;;;;4.32;1.60;;;;;;;;;;5102595;28;20058;-81
2022/06/01 13:19:21;;;;;;;3.35;1.58;;;;;;;;;;5091102;28;20049;-81
2022/06/01 13:21:50;;;;;;;3.30;1.60;;;;;;;;;;5106115;28;20990;-81
2022/06/01 13:24:18;;;;;;;4.10;1.40;;;;;;;;;;5091468;28;20087;-81
2022/06/01 13:26:46;;;;;;;5.18;1.70;;;;;;;;;;5100307;27;20060;-81
2022/06/01 13:29:17;;;;;;;5.03;1.90;;;;;;;;;;5098325;28;20156;-81
2022/06/01 13:31:46;;;;;;;4.85;1.50;;;;;;;;;;5092332;28;20048;-82
2022/06/01 13:34:32;;;;;;;4.43;1.42;;;;;;;;;;5101827;28;20123;-81
2022/06/01 13:37:08;;;;;;;4.45;1.50;;;;;;;;;;5101133;27;20136;-81
2022/06/01 13:39:36;;;;;;;4.55;1.75;;;;;;;;;;5094634;28;20044;-81
2022/06/01 13:42:03;;;;;;;4.95;1.80;;;;;;;;;;5093577;27;20264;-80
2022/06/01 13:44:43;;;;;;;3.75;1.90;;;;;;;;;;5093611;28;20163;-80
2022/06/01 13:47:10;;;;;;;4.30;1.60;;;;;;;;;;5086510;28;20152;-81
2022/06/01 13:49:43;;;;;;;4.57;1.35;;;;;;;;;;5089852;28;20088;-81
2022/06/01 13:52:12;;;;;;;4.18;1.50;;;;;;;;;;5088338;28;20053;-80
2022/06/01 13:54:38;;;;;;;4.82;1.80;;;;;;;;;;5096837;28;20136;-81
2022/06/01 13:57:11;;;;;;;3.78;1.80;;;;;;;;;;5101158;28;20074;-81
2022/06/01 13:59:39;;;;;;;3.20;1.40;;;;;;;;;;5091896;27;20060;-80
2022/06/01 14:02:22;;;;;;;3.90;1.63;;;;;;;;;;5090271;28;20533;-81
2022/06/01 14:04:58;;;;;;;3.45;1.55;;;;;;;;;;5093224;28;20061;-80
2022/06/01 14:07:24;;;;;;;4.63;1.75;;;;;;;;;;5097564;28;20056;-79
2022/06/01 14:09:59;;;;;;;4.88;1.77;;;;;;;;;;5091082;28;20107;-80
2022/06/01 14:12:26;;;;;;;5.18;1.60;;;;;;;;;;5097830;28;20854;-79
2022/06/01 14:14:54;;;;;;;3.60;1.25;;;;;;;;;;5092640;28;20934;-80
2022/06/01 14:17:22;;;;;;;3.78;1.40;;;;;;;;;;5094029;28;20430;-79
2022/06/01 14:19:49;;;;;;;2.50;1.05;;;;;;;;;;5107860;28;20138;-80
2022/06/01 14:22:16;;;;;;;2.95;1.10;;;;;;;;;;5109785;28;20109;-79
2022/06/01 14:30:14;;;;;;;4.32;1.77;;;;;;;;;;5104541;28;20130;-80
2022/06/01 14:32:44;;;;;;;4.82;1.90;;;;;;;;;;5101475;28;20139;-80
2022/06/01 14:35:12;;;;;;;5.63;1.77;;;;;;;;;;5111954;27;20060;-79
2022/06/01 14:37:38;;;;;;;3.88;1.50;;;;;;;;;;5100908;28;20585;-79
2022/06/01 14:40:05;;;;;;;3.88;1.55;;;;;;;;;;5107457;28;20123;-79
2022/06/01 14:42:31;;;;;;;3.75;1.83;;;;;;;;;;5105798;28;20052;-79
2022/06/01 14:44:59;;;;;;;4.72;1.88;;;;;;;;;;5103720;28;20881;-78
2022/06/01 14:47:25;;;;;;;3.60;1.73;;;;;;;;;;5106511;27;20059;-79
2022/06/01 14:49:52;;;;;;;3.72;1.60;;;;;;;;;;5104765;28;20131;-79
2022/06/01 14:52:18;;;;;;;3.55;1.48;;;;;;;;;;5093352;28;20070;-79
2022/06/01 14:54:44;;;;;;;4.05;1.67;;;;;;;;;;5090490;28;20056;-79
2022/06/01 14:57:11;;;;;;;3.70;1.63;;;;;;;;;;5100243;28;20132;-79
2022/06/01 14:59:43;;;;;;;4.75;1.60;;;;;;;;;;5107716;28;20091;-79
2022/06/01 15:02:12;;;;;;;4.18;1.90;;;;;;;;;;5105830;28;20969;-79
2022/06/01 15:04:39;;;;;;;3.50;1.52;;;;;;;;;;5100458;27;20052;-79
2022/06/01 15:07:07;;;;;;;3.33;1.50;;;;;;;;;;5097250;28;20136;-79
2022/06/01 15:09:35;;;;;;;3.38;1.63;;;;;;;;;;5102249;28;20068;-79
2022/06/01 15:12:03;;;;;;;5.80;1.77;;;;;;;;;;5095025;28;20059;-79
2022/06/01 15:14:29;;;;;;;5.45;1.70;;;;;;;;;;5095080;28;20053;-79
2022/06/01 15:17:03;;;;;;;4.05;1.85;;;;;;;;;;5094700;28;20045;-79
2022/06/01 15:19:34;;;;;;;4.63;2.60;;;;;;;;;;5092900;28;20516;-79
2022/06/01 15:22:00;;;;;;;7.75;2.67;;;;;;;;;;5111869;27;20858;-79
2022/06/01 15:24:26;;;;;;;5.78;2.65;;;;;;;;;;5098575;28;20537;-79
2022/06/01 15:26:53;;;;;;;4.53;2.55;;;;;;;;;;5101841;28;20728;-79